createdAt,value
2018-02-09T00:01:38.200Z,38.05
2018-02-09T00:04:05.913Z,43.90
2018-02-09T00:06:33.744Z,38.80
2018-02-09T00:09:01.523Z,40.38
2018-02-09T00:11:29.228Z,36.13
2018-02-09T00:13:57.029Z,41.85
2018-02-09T00:16:24.653Z,38.13
2018-02-09T00:18:52.423Z,40.17
2018-02-09T00:21:20.164Z,37.50
2018-02-09T00:23:47.821Z,38.95
2018-02-09T00:26:15.794Z,36.03
2018-02-09T00:28:43.515Z,45.08
2018-02-09T00:31:11.227Z,44.55
2018-02-09T00:33:39.199Z,35.90
2018-02-09T00:36:06.948Z,37.03
2018-02-09T00:38:34.635Z,37.28
2018-02-09T00:41:02.339Z,33.67
2018-02-09T00:43:30.085Z,45.15
2018-02-09T00:45:57.837Z,40.70
2018-02-09T00:48:25.443Z,42.60
2018-02-09T00:50:53.334Z,37.80
2018-02-09T00:53:21.031Z,38.00
2018-02-09T00:55:48.740Z,44.45
2018-02-09T00:58:16.523Z,34.67
2018-02-09T01:00:44.253Z,39.78
2018-02-09T01:03:12.022Z,39.33
2018-02-09T01:06:04.989Z,38.33
2018-02-09T01:08:32.696Z,46.67
2018-02-09T01:11:00.354Z,40.12
2018-02-09T01:13:28.031Z,35.90
2018-02-09T01:15:55.886Z,32.08
2018-02-09T01:18:23.823Z,35.10
2018-02-09T01:20:51.558Z,37.92
2018-02-09T01:23:19.219Z,40.17
2018-02-09T01:25:46.860Z,33.28
2018-02-09T01:28:15.997Z,44.40
2018-02-09T01:30:43.712Z,39.33
2018-02-09T01:33:11.363Z,37.38
2018-02-09T01:35:39.049Z,34.58
2018-02-09T01:38:06.788Z,39.58
2018-02-09T01:40:34.499Z,38.28
2018-02-09T01:43:02.205Z,38.10
2018-02-09T01:45:29.886Z,40.05
2018-02-09T01:47:57.551Z,38.35
2018-02-09T01:50:25.256Z,37.42
2018-02-09T01:52:52.905Z,34.47
2018-02-09T01:55:21.145Z,36.92
2018-02-09T01:57:49.514Z,39.50
2018-02-09T02:00:17.477Z,31.85
2018-02-09T02:02:45.448Z,42.38
2018-02-09T02:05:13.263Z,36.90
2018-02-09T02:07:40.874Z,43.65
2018-02-09T02:10:08.843Z,35.80
2018-02-09T02:12:36.709Z,42.47
2018-02-09T02:15:04.424Z,33.25
2018-02-09T02:17:32.084Z,37.58
2018-02-09T02:19:59.719Z,46.25
2018-02-09T02:22:27.738Z,37.97
2018-02-09T02:24:55.497Z,35.38
2018-02-09T02:27:23.422Z,35.15
2018-02-09T02:29:51.137Z,41.20
2018-02-09T02:32:18.828Z,43.35
2018-02-09T02:34:46.536Z,35.25
2018-02-09T02:37:14.198Z,39.22
2018-02-09T02:39:41.881Z,41.72
2018-02-09T02:42:09.527Z,41.60
2018-02-09T02:44:37.220Z,36.55
2018-02-09T02:47:04.868Z,37.03
2018-02-09T02:49:32.536Z,45.80
2018-02-09T02:52:00.215Z,42.03
2018-02-09T02:54:27.848Z,41.30
2018-02-09T02:56:55.501Z,36.33
2018-02-09T02:59:23.221Z,38.40
2018-02-09T03:01:50.869Z,33.70
2018-02-09T03:04:18.570Z,39.22
2018-02-09T03:06:46.277Z,44.25
2018-02-09T03:09:13.979Z,35.72
2018-02-09T03:11:41.618Z,43.05
2018-02-09T03:14:09.705Z,32.60
2018-02-09T03:16:37.364Z,34.40
2018-02-09T03:19:04.994Z,35.72
2018-02-09T03:21:33.005Z,40.10
2018-02-09T03:24:00.638Z,51.85
2018-02-09T03:26:28.295Z,44.53
2018-02-09T03:28:55.950Z,38.92
2018-02-09T03:31:23.620Z,38.67
2018-02-09T03:33:51.733Z,38.50
2018-02-09T03:36:19.403Z,37.53
2018-02-09T03:38:47.108Z,40.70
2018-02-09T03:41:14.714Z,36.83
2018-02-09T03:43:42.324Z,41.53
2018-02-09T03:46:09.963Z,33.47
2018-02-09T03:48:37.563Z,34.00
2018-02-09T03:51:05.201Z,37.83
2018-02-09T03:53:32.841Z,37.65
2018-02-09T03:56:00.503Z,42.25
2018-02-09T03:58:28.100Z,46.65
2018-02-09T04:00:55.719Z,52.60
2018-02-09T04:03:23.669Z,44.67
2018-02-09T04:05:51.287Z,34.78
2018-02-09T04:08:19.496Z,44.60
2018-02-09T04:10:47.131Z,37.00
2018-02-09T04:13:14.737Z,40.47
2018-02-09T04:15:42.496Z,42.33
2018-02-09T04:18:10.102Z,41.72
2018-02-09T04:20:37.719Z,41.90
2018-02-09T04:23:05.683Z,47.20
2018-02-09T04:25:33.648Z,44.03
2018-02-09T04:28:01.225Z,50.50
2018-02-09T04:30:28.836Z,36.72
2018-02-09T04:32:56.456Z,55.50
2018-02-09T04:35:24.110Z,39.33
2018-02-09T04:37:51.729Z,51.92
2018-02-09T04:40:19.338Z,47.88
2018-02-09T04:42:46.921Z,45.47
2018-02-09T04:45:15.243Z,43.42
2018-02-09T04:47:42.850Z,43.38
2018-02-09T04:50:10.483Z,33.05
2018-02-09T04:52:38.165Z,47.80
2018-02-09T04:55:05.759Z,38.85
2018-02-09T04:57:33.351Z,44.72
2018-02-09T05:00:01.035Z,45.80
2018-02-09T05:02:28.790Z,40.33
2018-02-09T05:04:56.636Z,34.95
2018-02-09T05:07:24.435Z,42.62
2018-02-09T05:09:52.170Z,48.33
2018-02-09T05:12:20.022Z,49.30
2018-02-09T05:14:47.701Z,44.90
2018-02-09T05:17:15.409Z,48.83
2018-02-09T05:19:43.291Z,40.38
2018-02-09T05:22:11.602Z,45.75
2018-02-09T05:24:39.375Z,56.97
2018-02-09T05:27:07.125Z,45.53
2018-02-09T05:29:34.988Z,45.60
2018-02-09T05:32:02.630Z,39.00
2018-02-09T05:34:30.267Z,43.35
2018-02-09T05:36:58.213Z,42.65
2018-02-09T05:39:25.915Z,47.40
2018-02-09T05:41:53.713Z,51.08
2018-02-09T05:44:21.916Z,50.80
2018-02-09T05:46:49.774Z,44.55
2018-02-09T05:49:17.459Z,46.63
2018-02-09T05:51:45.115Z,57.17
2018-02-09T05:54:12.759Z,52.20
2018-02-09T05:56:40.547Z,44.97
2018-02-09T05:59:08.182Z,51.42
2018-02-09T06:01:35.838Z,42.22
2018-02-09T06:04:03.617Z,50.28
2018-02-09T06:06:31.816Z,42.28
2018-02-09T06:08:59.557Z,46.15
2018-02-09T06:11:27.200Z,44.30
2018-02-09T06:13:55.142Z,39.60
2018-02-09T06:16:22.918Z,43.17
2018-02-09T06:18:50.934Z,42.83
2018-02-09T06:21:18.545Z,42.80
2018-02-09T06:23:46.236Z,41.85
2018-02-09T06:26:14.038Z,46.90
2018-02-09T06:28:41.892Z,42.67
2018-02-09T06:31:09.542Z,42.50
2018-02-09T06:33:37.143Z,46.00
2018-02-09T06:36:04.765Z,44.95
2018-02-09T06:38:32.430Z,48.15
2018-02-09T06:41:00.019Z,46.47
2018-02-09T06:43:27.967Z,40.83
2018-02-09T06:45:55.573Z,39.38
2018-02-09T06:48:23.215Z,49.95
2018-02-09T06:50:50.862Z,41.78
2018-02-09T06:53:18.464Z,45.92
2018-02-09T06:55:46.131Z,46.50
2018-02-09T06:58:13.743Z,47.88
2018-02-09T07:00:41.411Z,41.40
2018-02-09T07:03:09.010Z,46.65
2018-02-09T07:05:36.630Z,45.60
2018-02-09T07:08:04.591Z,52.35
2018-02-09T07:10:32.397Z,38.83
2018-02-09T07:13:00.158Z,40.10
2018-02-09T07:15:27.787Z,43.55
2018-02-09T07:17:55.436Z,43.30
2018-02-09T07:20:23.471Z,40.58
2018-02-09T07:22:51.123Z,38.53
2018-02-09T07:25:18.798Z,44.45
2018-02-09T07:27:46.829Z,40.47
2018-02-09T07:30:14.498Z,36.35
2018-02-09T07:32:42.418Z,41.08
2018-02-09T07:35:10.085Z,39.05
2018-02-09T07:37:37.795Z,38.17
2018-02-09T07:40:05.561Z,48.83
2018-02-09T07:42:33.206Z,66.07
2018-02-09T07:45:00.966Z,51.37
2018-02-09T07:47:28.607Z,41.33
2018-02-09T07:49:56.359Z,37.08
2018-02-09T07:52:24.043Z,36.13
2018-02-09T07:54:52.127Z,34.53
2018-02-09T07:57:19.779Z,39.55
2018-02-09T07:59:47.453Z,40.47
2018-02-09T08:02:15.059Z,40.60
2018-02-09T08:04:42.713Z,44.95
2018-02-09T08:07:10.344Z,33.75
2018-02-09T08:09:38.038Z,110.90
2018-02-09T08:12:08.933Z,61.60
2018-02-09T08:14:36.623Z,42.40
2018-02-09T08:17:04.266Z,41.25
2018-02-09T08:19:32.843Z,52.75
2018-02-09T08:22:00.806Z,53.65
2018-02-09T08:24:28.698Z,45.28
2018-02-09T08:26:56.311Z,41.40
2018-02-09T08:29:24.199Z,35.20
2018-02-09T08:31:52.584Z,36.58
2018-02-09T08:34:20.282Z,35.92
2018-02-09T08:36:47.865Z,36.92
2018-02-09T08:39:15.874Z,31.12
2018-02-09T08:41:43.470Z,29.27
2018-02-09T08:44:11.117Z,41.08
2018-02-09T08:46:38.718Z,26.80
2018-02-09T08:49:06.562Z,30.92
2018-02-09T08:51:34.530Z,32.00
2018-02-09T08:54:02.105Z,30.70
2018-02-09T08:56:29.778Z,34.67
2018-02-09T08:58:57.383Z,36.42
2018-02-09T09:01:33.211Z,28.73
2018-02-09T09:04:00.838Z,33.58
2018-02-09T09:06:28.523Z,37.00
2018-02-09T09:08:56.623Z,29.50
2018-02-09T09:11:24.214Z,36.30
2018-02-09T09:13:52.059Z,31.05
2018-02-09T09:16:19.728Z,33.35
2018-02-09T09:18:47.381Z,29.27
2018-02-09T09:21:15.012Z,28.90
2018-02-09T09:23:42.708Z,23.75
2018-02-09T09:26:10.328Z,31.48
2018-02-09T09:28:37.985Z,28.10
2018-02-09T09:31:05.627Z,27.17
2018-02-09T09:33:33.661Z,29.50
2018-02-09T09:36:01.290Z,37.40
2018-02-09T09:38:29.300Z,29.05
2018-02-09T09:40:57.343Z,32.90
2018-02-09T09:43:24.929Z,49.30
2018-02-09T09:45:52.553Z,29.48
2018-02-09T09:48:20.215Z,19.73
2018-02-09T09:50:48.314Z,21.98
2018-02-09T09:53:15.981Z,33.15
2018-02-09T09:55:43.597Z,28.35
2018-02-09T09:58:11.314Z,26.15
2018-02-09T10:00:38.887Z,33.20
2018-02-09T10:03:06.522Z,28.05
2018-02-09T10:05:34.215Z,27.92
2018-02-09T10:08:01.840Z,27.60
2018-02-09T10:10:29.832Z,33.42
2018-02-09T10:12:57.489Z,28.17
2018-02-09T10:15:25.092Z,26.73
2018-02-09T10:17:52.717Z,31.87
2018-02-09T10:20:20.413Z,29.92
2018-02-09T10:22:48.033Z,32.38
2018-02-09T10:25:15.641Z,28.02
2018-02-09T10:27:43.296Z,26.83
2018-02-09T10:30:10.915Z,26.33
2018-02-09T10:32:38.582Z,29.02
2018-02-09T10:35:06.193Z,28.40
2018-02-09T10:37:34.109Z,47.92
2018-02-09T10:40:01.756Z,48.65
2018-02-09T10:42:29.384Z,38.17
2018-02-09T10:44:57.221Z,28.70
2018-02-09T10:47:25.228Z,24.83
2018-02-09T10:49:53.082Z,28.42
2018-02-09T10:52:21.050Z,29.25
2018-02-09T10:54:48.790Z,27.67
2018-02-09T10:57:16.497Z,25.60
2018-02-09T10:59:44.279Z,23.38
2018-02-09T11:02:12.014Z,28.23
2018-02-09T11:04:40.248Z,29.83
2018-02-09T11:07:08.021Z,23.10
2018-02-09T11:09:35.775Z,28.27
2018-02-09T11:12:08.061Z,34.58
2018-02-09T11:14:36.392Z,27.87
2018-02-09T11:17:06.255Z,27.53
2018-02-09T11:19:34.777Z,23.70
2018-02-09T11:22:06.325Z,23.10
2018-02-09T11:24:34.120Z,20.83
2018-02-09T11:27:30.061Z,42.35
2018-02-09T11:33:28.239Z,22.90
2018-02-09T11:38:46.768Z,25.77
2018-02-09T11:41:16.788Z,44.78
2018-02-09T11:44:03.300Z,23.10
2018-02-09T12:01:19.734Z,26.60
2018-02-09T12:06:53.487Z,18.67
2018-02-09T12:12:21.076Z,32.30
2018-02-09T12:20:50.023Z,24.33
2018-02-09T12:23:18.278Z,51.40
2018-02-09T12:25:54.758Z,35.57
2018-02-09T12:28:22.917Z,19.30
2018-02-09T12:30:51.095Z,24.60
2018-02-09T12:33:18.886Z,21.77
2018-02-09T12:35:46.951Z,20.87
2018-02-09T12:38:16.415Z,21.30
2018-02-09T15:07:02.090Z,33.93
2018-02-09T17:58:15.239Z,65.87
2018-02-09T18:03:54.839Z,69.60
2018-02-09T18:11:06.974Z,64.85
2018-02-09T18:13:40.338Z,79.10
2018-02-09T18:16:10.023Z,72.78
2018-02-09T18:18:38.671Z,84.72
2018-02-09T18:21:09.431Z,67.62
2018-02-09T18:23:41.511Z,72.22
2018-02-09T18:26:12.394Z,66.43
2018-02-09T18:28:44.461Z,73.90
2018-02-09T18:31:14.592Z,74.00
2018-02-09T18:33:45.328Z,61.67
2018-02-09T18:36:13.219Z,62.47
2018-02-09T18:38:40.989Z,67.80
2018-02-09T18:41:08.894Z,84.47
2018-02-09T18:43:36.841Z,67.47
2018-02-09T18:46:04.790Z,73.93
2018-02-09T18:48:32.620Z,81.40
2018-02-09T18:51:04.843Z,68.53
2018-02-09T18:53:35.046Z,66.40
2018-02-09T18:56:08.432Z,70.28
2018-02-09T18:58:39.351Z,79.40
2018-02-09T19:01:07.281Z,82.57
2018-02-09T19:03:34.986Z,90.12
2018-02-09T19:06:03.245Z,67.05
2018-02-09T19:08:32.374Z,81.72
2018-02-09T19:11:00.457Z,77.15
2018-02-09T19:13:31.138Z,65.05
2018-02-09T19:16:00.115Z,75.55
2018-02-09T19:18:27.869Z,81.87
2018-02-09T19:20:55.921Z,72.07
2018-02-09T19:23:26.109Z,78.62
2018-02-09T19:25:53.909Z,69.90
2018-02-09T19:28:21.971Z,71.78
2018-02-09T19:30:49.859Z,77.53
2018-02-09T19:33:17.706Z,84.82
2018-02-09T19:38:37.271Z,77.40
2018-02-09T19:41:15.425Z,77.22
2018-02-09T19:46:41.362Z,74.65
2018-02-09T19:49:14.468Z,79.25
2018-02-09T19:51:45.308Z,84.68
2018-02-09T19:54:17.007Z,82.80
2018-02-09T19:56:47.198Z,83.45
2018-02-09T19:59:21.804Z,83.25
2018-02-09T20:01:50.303Z,70.82
2018-02-09T20:04:18.404Z,71.93
2018-02-09T20:09:39.328Z,65.10
2018-02-09T20:12:09.347Z,64.93
2018-02-09T20:14:46.512Z,81.20
2018-02-09T20:17:14.543Z,76.05
2018-02-09T20:19:42.663Z,76.05
2018-02-09T20:22:10.576Z,75.25
2018-02-09T20:24:42.220Z,78.65
2018-02-09T20:27:10.192Z,86.65
2018-02-09T20:32:13.365Z,81.07
2018-02-09T20:34:41.092Z,78.53
2018-02-09T20:50:50.163Z,74.80
2018-02-09T20:53:17.952Z,77.97
2018-02-09T20:55:45.638Z,79.80
2018-02-09T20:58:13.369Z,76.72
2018-02-09T21:00:42.287Z,92.37
2018-02-09T21:03:10.041Z,94.55
2018-02-09T21:05:38.175Z,105.53
2018-02-09T21:08:07.449Z,104.93
2018-02-09T21:10:35.111Z,88.10
2018-02-09T21:13:02.839Z,76.30
2018-02-09T21:15:30.535Z,81.43
2018-02-09T21:17:58.151Z,80.95
2018-02-09T21:20:25.821Z,79.03
2018-02-09T21:22:53.470Z,94.37
2018-02-09T21:25:21.122Z,82.25
2018-02-09T21:27:49.500Z,85.20
2018-02-09T21:30:17.148Z,80.87
2018-02-09T21:32:44.848Z,94.55
2018-02-09T21:35:12.536Z,84.00
2018-02-09T21:37:40.130Z,79.35
2018-02-09T21:40:07.784Z,76.50
2018-02-09T21:42:35.506Z,83.55
2018-02-09T21:45:03.108Z,74.57
2018-02-09T21:47:30.780Z,76.80
2018-02-09T21:49:58.471Z,81.55
2018-02-09T21:52:26.116Z,83.37
2018-02-09T21:54:53.765Z,84.45
2018-02-09T21:57:21.428Z,74.97
2018-02-09T21:59:49.405Z,72.32
2018-02-09T22:02:17.098Z,73.65
2018-02-09T22:04:44.811Z,81.63
2018-02-09T22:07:12.619Z,80.10
2018-02-09T22:09:40.261Z,83.68
2018-02-09T22:12:08.014Z,90.12
2018-02-09T22:14:35.690Z,65.28
2018-02-09T22:17:03.388Z,78.57
2018-02-09T22:19:31.199Z,69.32
2018-02-09T22:21:58.998Z,81.45
2018-02-09T22:24:27.083Z,71.93
2018-02-09T22:26:54.759Z,77.12
2018-02-09T22:29:22.607Z,75.53
2018-02-09T22:31:50.316Z,66.37
2018-02-09T22:34:17.929Z,62.40
2018-02-09T22:36:45.567Z,78.78
2018-02-09T22:39:13.259Z,68.12
2018-02-09T22:41:40.951Z,69.62
2018-02-09T22:44:08.673Z,72.97
2018-02-09T22:46:36.334Z,62.47
2018-02-09T22:49:04.070Z,63.13
2018-02-09T22:51:31.798Z,56.55
2018-02-09T22:53:59.457Z,66.85
2018-02-09T22:56:27.160Z,60.58
2018-02-09T22:58:54.855Z,71.60
2018-02-09T23:01:22.485Z,74.10
2018-02-09T23:03:50.101Z,64.43
2018-02-09T23:06:17.747Z,66.32
2018-02-09T23:08:45.431Z,72.93
2018-02-09T23:11:13.100Z,63.58
2018-02-09T23:13:40.732Z,80.57
2018-02-09T23:16:08.410Z,64.47
2018-02-09T23:18:36.027Z,67.90
2018-02-09T23:21:03.729Z,66.03
2018-02-09T23:23:31.403Z,61.55
2018-02-09T23:26:08.287Z,58.95
2018-02-09T23:28:37.442Z,70.05
2018-02-09T23:31:05.915Z,67.62
2018-02-09T23:33:33.578Z,65.55
2018-02-09T23:36:01.311Z,66.72
2018-02-09T23:38:29.169Z,64.50
2018-02-09T23:40:58.497Z,63.60
2018-02-09T23:43:26.450Z,64.97
2018-02-09T23:45:54.088Z,61.20
2018-02-09T23:48:21.770Z,63.53
2018-02-09T23:50:49.463Z,65.70
2018-02-09T23:53:17.106Z,68.40
2018-02-09T23:55:44.830Z,63.33
2018-02-09T23:58:12.534Z,54.08
